Time;durP1;ratioP1;P1;durP2;ratioP2;P2;SDS_P1;SDS_P2;PMS_P1;PMS_P2;Temp;Humidity;BMP_temperature;BMP_pressure;BME280_temperature;BME280_humidity;BME280_pressure;Samples;Min_cycle;Max_cycle;Signal;HPM_P1;HPM_P2
2022/05/06 00:02:08;;;;;;;20.20;14.23;;;12.10;99.90;;;;;;5059587;28;20052;-80
2022/05/06 00:04:34;;;;;;;29.15;17.15;;;12.10;99.90;;;;;;5059367;28;20110;-80
2022/05/06 00:06:59;;;;;;;28.92;15.23;;;12.20;99.90;;;;;;5061322;28;20041;-80
2022/05/06 00:09:25;;;;;;;30.67;19.10;;;12.20;99.90;;;;;;5060014;28;20053;-80
2022/05/06 00:11:53;;;;;;;31.02;17.25;;;12.20;99.90;;;;;;5060134;28;20063;-80
2022/05/06 00:14:19;;;;;;;27.10;15.57;;;12.20;99.90;;;;;;5059019;28;20056;-80
2022/05/06 00:16:45;;;;;;;26.83;16.23;;;12.20;99.90;;;;;;5059858;28;20122;-80
2022/05/06 00:19:10;;;;;;;19.73;15.13;;;12.20;99.90;;;;;;5059810;28;20388;-81
2022/05/06 00:21:36;;;;;;;23.10;16.60;;;12.20;99.90;;;;;;5060204;28;20178;-80
2022/05/06 00:24:03;;;;;;;24.20;16.52;;;12.20;99.90;;;;;;5059812;28;20040;-81
2022/05/06 00:26:29;;;;;;;25.55;14.02;;;12.30;99.90;;;;;;5059578;28;20052;-79
2022/05/06 00:28:54;;;;;;;24.65;16.38;;;12.30;99.90;;;;;;5059087;28;20048;-80
2022/05/06 00:31:20;;;;;;;26.10;17.65;;;12.30;99.90;;;;;;5059765;28;20426;-80
2022/05/06 00:33:47;;;;;;;22.52;16.15;;;12.30;99.90;;;;;;5059313;28;20542;-80
2022/05/06 00:36:14;;;;;;;27.83;15.80;;;12.20;99.90;;;;;;5058070;28;20128;-80
2022/05/06 00:38:40;;;;;;;22.05;14.85;;;12.20;99.90;;;;;;5058936;28;20039;-80
2022/05/06 00:41:07;;;;;;;25.35;16.25;;;12.20;99.90;;;;;;5059746;28;20044;-80
2022/05/06 00:43:33;;;;;;;33.75;17.23;;;12.20;99.90;;;;;;5058886;28;20040;-80
2022/05/06 00:45:58;;;;;;;31.92;15.45;;;12.20;99.90;;;;;;5054111;28;20679;-80
2022/05/06 00:48:27;;;;;;;33.13;16.27;;;12.20;99.90;;;;;;5038936;28;20361;-80
2022/05/06 00:50:53;;;;;;;21.33;15.55;;;12.20;99.90;;;;;;5022106;28;20546;-80
2022/05/06 00:53:19;;;;;;;24.42;15.30;;;12.20;99.90;;;;;;5039530;28;20043;-80
2022/05/06 00:55:45;;;;;;;20.95;14.40;;;12.20;99.90;;;;;;5039978;28;20443;-80
2022/05/06 00:58:11;;;;;;;27.70;15.23;;;12.20;99.90;;;;;;5037718;28;20080;-80
2022/05/06 01:00:36;;;;;;;22.58;14.82;;;12.20;99.90;;;;;;5038478;28;20041;-80
2022/05/06 01:03:02;;;;;;;21.48;14.98;;;12.10;99.90;;;;;;5039297;28;20063;-80
2022/05/06 01:05:29;;;;;;;20.27;13.70;;;12.10;99.90;;;;;;5038889;28;20076;-80
2022/05/06 01:07:58;;;;;;;24.52;15.23;;;12.20;99.90;;;;;;5068271;22;20054;-83
2022/05/06 01:10:24;;;;;;;29.02;15.82;;;12.10;99.90;;;;;;5059261;28;20099;-83
2022/05/06 01:12:50;;;;;;;20.15;15.25;;;12.10;99.90;;;;;;5025757;28;20494;-83
2022/05/06 01:15:17;;;;;;;24.65;15.75;;;12.10;99.90;;;;;;5040850;28;20134;-83
2022/05/06 01:17:43;;;;;;;23.45;14.88;;;12.10;99.90;;;;;;5059683;28;20053;-82
2022/05/06 01:20:09;;;;;;;17.33;13.85;;;12.10;99.90;;;;;;5058084;28;20041;-82
2022/05/06 01:22:35;;;;;;;30.55;16.42;;;12.10;99.90;;;;;;5059743;28;20041;-83
2022/05/06 01:25:01;;;;;;;19.10;13.93;;;12.10;99.90;;;;;;5041589;28;20814;-83
2022/05/06 01:27:32;;;;;;;22.10;14.43;;;12.10;99.90;;;;;;5041646;28;20902;-82
2022/05/06 01:29:59;;;;;;;24.50;13.43;;;12.10;99.90;;;;;;5060380;28;20115;-83
2022/05/06 01:32:27;;;;;;;21.98;13.48;;;12.10;99.90;;;;;;5058685;28;20489;-83
2022/05/06 01:34:55;;;;;;;16.90;13.88;;;12.00;99.90;;;;;;5024570;28;20037;-83
2022/05/06 01:37:23;;;;;;;19.67;14.32;;;12.00;99.90;;;;;;5023960;28;20430;-82
2022/05/06 01:39:53;;;;;;;15.25;12.60;;;12.00;99.90;;;;;;5060007;28;20481;-83
2022/05/06 01:42:21;;;;;;;23.30;13.98;;;12.00;99.90;;;;;;5058656;28;20051;-83
2022/05/06 01:44:50;;;;;;;21.10;14.20;;;12.00;99.90;;;;;;5041665;28;20244;-82
2022/05/06 01:47:24;;;;;;;26.85;15.15;;;11.90;99.90;;;;;;5057043;28;20066;-83
2022/05/06 01:49:52;;;;;;;17.90;12.45;;;12.00;99.90;;;;;;5078195;28;20778;-82
2022/05/06 01:52:18;;;;;;;24.75;14.32;;;12.00;99.90;;;;;;5079523;28;20044;-83
2022/05/06 01:54:44;;;;;;;21.23;15.43;;;11.90;99.90;;;;;;5079118;28;20324;-82
2022/05/06 01:57:10;;;;;;;27.00;13.40;;;11.90;99.90;;;;;;5061327;28;20036;-83
2022/05/06 01:59:39;;;;;;;23.00;14.63;;;11.90;99.90;;;;;;5061131;28;20105;-83
2022/05/06 02:02:07;;;;;;;23.17;13.95;;;11.90;99.90;;;;;;5061471;28;20120;-83
2022/05/06 02:07:17;;;;;;;22.88;12.32;;;11.90;99.90;;;;;;5078622;28;20589;-83
2022/05/06 02:09:42;;;;;;;21.00;13.52;;;11.90;99.90;;;;;;5061554;28;20068;-83
2022/05/06 02:12:08;;;;;;;25.25;14.60;;;11.90;99.90;;;;;;5060409;28;20236;-83
2022/05/06 02:14:34;;;;;;;21.58;15.05;;;11.90;99.90;;;;;;5044672;28;20392;-82
2022/05/06 02:17:00;;;;;;;17.88;13.70;;;11.80;99.90;;;;;;5079349;28;20044;-82
2022/05/06 02:19:26;;;;;;;25.15;15.00;;;11.80;99.90;;;;;;5060139;28;20044;-82
2022/05/06 02:21:52;;;;;;;20.52;14.05;;;11.80;99.90;;;;;;5079254;28;20040;-83
2022/05/06 02:24:17;;;;;;;22.27;13.50;;;11.80;99.90;;;;;;5060507;28;20362;-82
2022/05/06 02:26:43;;;;;;;25.27;16.38;;;11.80;99.90;;;;;;5060697;28;20036;-83
2022/05/06 02:29:08;;;;;;;20.17;14.15;;;11.80;99.90;;;;;;5082734;28;20044;-83
2022/05/06 02:34:19;;;;;;;38.72;16.67;;;11.70;99.90;;;;;;5063715;28;20394;-82
2022/05/06 02:36:46;;;;;;;24.83;15.02;;;11.70;99.90;;;;;;5082569;28;20543;-83
2022/05/06 02:39:11;;;;;;;24.50;15.75;;;11.70;99.90;;;;;;5082344;28;20690;-82
2022/05/06 02:41:37;;;;;;;27.60;15.45;;;11.70;99.90;;;;;;5064769;28;20040;-83
2022/05/06 02:44:04;;;;;;;19.00;13.15;;;11.70;99.90;;;;;;5064087;28;20067;-83
2022/05/06 02:46:31;;;;;;;23.65;15.27;;;11.70;99.90;;;;;;5055098;28;20071;-82
2022/05/06 02:48:56;;;;;;;22.80;12.93;;;11.60;99.90;;;;;;5061455;28;20045;-82
2022/05/06 02:51:22;;;;;;;27.65;14.73;;;11.70;99.90;;;;;;5043738;28;20052;-82
2022/05/06 02:53:48;;;;;;;16.80;10.98;;;11.70;99.90;;;;;;5044584;28;20040;-83
2022/05/06 02:56:13;;;;;;;18.15;11.88;;;11.60;99.90;;;;;;5027274;28;20040;-83
2022/05/06 02:58:39;;;;;;;18.15;11.80;;;11.60;99.90;;;;;;5062371;28;20090;-82
2022/05/06 03:01:04;;;;;;;17.45;11.30;;;11.60;99.90;;;;;;5061886;28;20037;-83
2022/05/06 03:03:33;;;;;;;17.55;10.25;;;11.60;99.90;;;;;;5061540;28;20110;-82
2022/05/06 03:06:00;;;;;;;21.20;11.32;;;11.60;99.90;;;;;;5062811;28;20044;-83
2022/05/06 03:08:25;;;;;;;17.13;11.02;;;11.60;99.90;;;;;;5043446;28;20265;-82
2022/05/06 03:10:51;;;;;;;18.95;10.68;;;11.50;99.90;;;;;;5062530;28;20076;-83
2022/05/06 03:13:16;;;;;;;18.05;8.60;;;11.50;99.90;;;;;;5061290;28;20775;-83
2022/05/06 03:15:43;;;;;;;11.77;8.18;;;11.50;99.90;;;;;;5061762;28;20121;-83
2022/05/06 03:18:09;;;;;;;12.98;9.57;;;11.50;99.90;;;;;;5060861;28;20049;-82
2022/05/06 03:20:34;;;;;;;12.65;8.73;;;11.50;99.90;;;;;;5061176;28;20048;-82
2022/05/06 03:23:00;;;;;;;10.02;7.93;;;11.50;99.90;;;;;;5044677;28;20044;-82
2022/05/06 03:25:26;;;;;;;8.15;6.45;;;11.50;99.90;;;;;;5044101;28;20381;-82
2022/05/06 03:28:02;;;;;;;9.82;6.55;;;11.50;99.90;;;;;;5061270;28;20047;-83
2022/05/06 03:30:30;;;;;;;7.07;5.72;;;11.40;99.90;;;;;;5027523;28;20123;-82
2022/05/06 03:32:58;;;;;;;7.13;6.03;;;11.40;99.90;;;;;;5043291;28;20037;-83
2022/05/06 03:35:24;;;;;;;9.18;5.43;;;11.40;99.90;;;;;;5061260;28;20228;-83
2022/05/06 03:37:52;;;;;;;4.90;3.88;;;11.40;99.90;;;;;;5043066;28;21122;-83
2022/05/06 03:40:18;;;;;;;6.20;4.03;;;11.30;99.90;;;;;;5043312;28;20041;-82
2022/05/06 03:42:44;;;;;;;4.90;4.28;;;11.20;99.90;;;;;;5043350;28;20037;-83
2022/05/06 03:45:10;;;;;;;3.75;3.20;;;11.20;99.90;;;;;;5043356;28;20132;-82
2022/05/06 03:47:36;;;;;;;30.20;5.47;;;11.20;99.90;;;;;;5061814;28;20040;-83
2022/05/06 03:52:50;;;;;;;5.80;4.20;;;11.20;99.90;;;;;;5081027;28;20193;-82
2022/05/06 03:55:15;;;;;;;5.18;4.72;;;11.20;99.90;;;;;;5081356;28;20075;-83
2022/05/06 03:57:42;;;;;;;4.25;3.85;;;11.20;99.90;;;;;;5063109;28;20105;-82
2022/05/06 04:00:12;;;;;;;5.50;4.45;;;11.10;99.90;;;;;;5062479;28;20047;-83
2022/05/06 04:02:37;;;;;;;6.43;4.53;;;11.10;99.90;;;;;;5046146;28;20549;-83
2022/05/06 04:05:04;;;;;;;4.22;3.85;;;11.10;99.90;;;;;;5062139;28;20082;-83
2022/05/06 04:07:29;;;;;;;4.97;3.83;;;11.10;99.90;;;;;;5063097;28;20438;-82
2022/05/06 04:09:55;;;;;;;5.75;5.13;;;11.10;99.90;;;;;;5045895;28;20048;-83
2022/05/06 04:12:21;;;;;;;13.32;5.32;;;11.10;99.90;;;;;;5080676;28;20040;-83
2022/05/06 04:14:47;;;;;;;8.38;5.95;;;11.10;99.90;;;;;;5081056;28;20066;-82
2022/05/06 04:17:13;;;;;;;9.68;5.53;;;11.10;99.90;;;;;;5062362;28;20061;-83
2022/05/06 04:23:28;;;;;;;6.70;5.90;;;11.10;99.90;;;;;;5061648;28;20040;-83
2022/05/06 04:25:14;;;;;;;6.10;4.53;;;11.10;99.90;;;;;;5062585;28;20105;-83
2022/05/06 04:27:40;;;;;;;3.05;2.85;;;11.10;99.90;;;;;;5079967;28;20263;-83
2022/05/06 04:30:06;;;;;;;4.68;3.53;;;11.10;99.90;;;;;;5062681;28;20406;-82
2022/05/06 04:32:32;;;;;;;3.55;2.95;;;11.10;99.90;;;;;;5062447;28;20032;-83
2022/05/06 04:34:57;;;;;;;6.78;4.18;;;11.10;99.90;;;;;;5061712;28;20052;-83
2022/05/06 04:37:26;;;;;;;5.53;4.65;;;11.10;99.90;;;;;;5045453;28;20036;-83
2022/05/06 04:39:52;;;;;;;4.45;3.47;;;11.10;99.90;;;;;;5079790;28;20036;-82
2022/05/06 04:42:18;;;;;;;4.20;3.90;;;11.00;99.90;;;;;;5062031;28;20051;-83
2022/05/06 04:44:43;;;;;;;4.82;4.22;;;11.00;99.90;;;;;;5080104;28;20043;-82
2022/05/06 04:47:09;;;;;;;4.30;3.17;;;11.00;99.90;;;;;;5029196;28;20475;-83
2022/05/06 04:49:35;;;;;;;5.32;4.65;;;11.10;99.90;;;;;;5041141;28;20040;-83
2022/05/06 04:52:00;;;;;;;5.95;3.90;;;11.10;99.90;;;;;;5041450;28;20563;-82
2022/05/06 04:54:26;;;;;;;6.97;5.18;;;11.10;99.90;;;;;;5059984;28;20037;-83
2022/05/06 04:56:53;;;;;;;4.35;3.95;;;11.10;99.90;;;;;;5041861;28;20036;-82
2022/05/06 04:59:19;;;;;;;3.17;2.88;;;11.10;99.90;;;;;;5059002;28;20044;-83
2022/05/06 05:01:44;;;;;;;5.32;3.78;;;11.10;99.90;;;;;;5060001;28;20041;-83
2022/05/06 05:04:10;;;;;;;4.95;3.42;;;11.10;99.90;;;;;;5058089;28;20281;-83
2022/05/06 05:06:35;;;;;;;5.50;3.60;;;11.10;99.90;;;;;;5041161;28;20145;-82
2022/05/06 05:09:01;;;;;;;8.20;4.85;;;11.10;99.90;;;;;;5041327;28;20181;-83
2022/05/06 05:11:28;;;;;;;3.85;3.08;;;11.10;99.90;;;;;;5059652;28;20051;-83
2022/05/06 05:13:55;;;;;;;4.65;3.08;;;11.10;99.90;;;;;;5059921;28;20044;-83
2022/05/06 05:16:21;;;;;;;4.30;2.95;;;11.10;99.90;;;;;;5041083;28;20051;-83
2022/05/06 05:18:46;;;;;;;4.97;3.60;;;11.10;99.90;;;;;;5040678;28;20044;-83
2022/05/06 05:21:12;;;;;;;7.57;4.25;;;11.20;99.90;;;;;;5059377;28;20044;-83
2022/05/06 05:23:38;;;;;;;3.95;3.45;;;11.20;99.90;;;;;;5041368;28;20040;-83
2022/05/06 05:26:03;;;;;;;5.40;4.38;;;11.20;99.90;;;;;;5059172;28;20083;-84
2022/05/06 05:28:29;;;;;;;5.57;4.05;;;11.20;99.90;;;;;;5059605;28;20042;-83
2022/05/06 05:30:54;;;;;;;5.10;3.38;;;11.20;99.90;;;;;;5059045;28;20400;-83
2022/05/06 05:33:20;;;;;;;7.28;3.80;;;11.20;99.90;;;;;;5040255;28;20041;-83
2022/05/06 05:35:45;;;;;;;3.60;3.30;;;11.20;99.90;;;;;;5059172;28;20430;-83
2022/05/06 05:38:11;;;;;;;3.22;2.80;;;11.30;99.90;;;;;;5058412;28;20393;-83
2022/05/06 05:40:37;;;;;;;4.28;3.75;;;11.30;99.90;;;;;;5040994;28;20254;-83
2022/05/06 05:43:03;;;;;;;5.45;4.95;;;11.30;99.90;;;;;;5058596;28;20052;-84
2022/05/06 05:48:22;;;;;;;3.80;3.50;;;11.30;99.90;;;;;;5059078;28;20056;-83
2022/05/06 05:50:49;;;;;;;7.68;5.28;;;11.30;99.90;;;;;;5044786;28;20439;-83
2022/05/06 05:53:14;;;;;;;6.75;5.93;;;11.30;99.90;;;;;;5078696;28;20047;-83
2022/05/06 05:55:40;;;;;;;4.60;4.15;;;11.30;99.90;;;;;;5061279;28;20040;-82
2022/05/06 05:58:05;;;;;;;6.30;5.28;;;11.40;99.90;;;;;;5043820;28;20081;-85
2022/05/06 06:00:31;;;;;;;5.75;4.63;;;11.40;99.90;;;;;;5078644;28;20075;-85
2022/05/06 06:02:57;;;;;;;6.07;4.93;;;11.40;99.90;;;;;;5047385;28;20106;-84
2022/05/06 06:05:23;;;;;;;4.78;4.30;;;11.40;99.90;;;;;;5064454;28;20079;-85
2022/05/06 06:07:48;;;;;;;5.78;5.22;;;11.40;99.90;;;;;;5083142;28;20105;-85
2022/05/06 06:10:14;;;;;;;7.30;4.63;;;11.40;99.90;;;;;;5082212;28;20040;-85
2022/05/06 06:12:42;;;;;;;6.47;4.65;;;11.40;99.90;;;;;;5083089;28;20075;-85
2022/05/06 06:15:08;;;;;;;6.75;6.07;;;11.40;99.90;;;;;;5065076;28;20481;-85
2022/05/06 06:17:33;;;;;;;6.47;5.40;;;11.40;99.90;;;;;;5063904;28;20135;-85
2022/05/06 06:19:59;;;;;;;9.02;6.38;;;11.40;99.90;;;;;;5065275;28;20044;-85
2022/05/06 06:22:25;;;;;;;7.10;5.60;;;11.40;99.90;;;;;;5082566;28;20044;-85
2022/05/06 06:24:50;;;;;;;5.25;4.72;;;11.40;99.90;;;;;;5082818;28;20094;-84
2022/05/06 06:27:16;;;;;;;5.80;4.53;;;11.50;99.90;;;;;;5064712;28;20048;-85
2022/05/06 06:29:41;;;;;;;7.70;6.40;;;11.50;99.90;;;;;;5064525;28;20052;-85
2022/05/06 06:32:07;;;;;;;10.32;5.82;;;11.40;99.90;;;;;;5063953;28;20051;-85
2022/05/06 06:34:33;;;;;;;7.38;5.18;;;11.50;99.90;;;;;;5063455;28;20555;-85
2022/05/06 06:36:58;;;;;;;6.82;6.15;;;11.40;99.90;;;;;;5064426;28;20036;-85
2022/05/06 06:39:24;;;;;;;6.55;4.95;;;11.50;99.90;;;;;;5064215;28;20048;-85
2022/05/06 06:41:49;;;;;;;10.38;7.55;;;11.50;99.90;;;;;;5064057;28;20083;-85
2022/05/06 06:44:15;;;;;;;5.53;5.13;;;11.60;99.90;;;;;;5047539;28;20139;-85
2022/05/06 06:46:40;;;;;;;9.05;6.38;;;11.60;99.90;;;;;;5071369;28;20038;-85
2022/05/06 06:49:06;;;;;;;9.23;6.55;;;11.60;99.90;;;;;;5060790;28;20044;-85
2022/05/06 06:51:32;;;;;;;8.52;5.05;;;11.70;99.90;;;;;;5044012;28;20041;-85
2022/05/06 06:53:58;;;;;;;6.55;5.97;;;11.60;99.90;;;;;;5044144;28;20108;-85
2022/05/06 06:56:23;;;;;;;8.35;6.20;;;11.70;99.90;;;;;;5043861;28;20121;-85
2022/05/06 06:58:49;;;;;;;5.50;5.00;;;11.70;99.90;;;;;;5044145;28;20048;-85
2022/05/06 07:01:15;;;;;;;6.22;4.97;;;11.70;99.90;;;;;;5043593;28;20457;-85
2022/05/06 07:03:41;;;;;;;5.65;4.97;;;11.80;99.90;;;;;;5042784;28;20518;-86
2022/05/06 07:11:53;;;;;;;7.10;4.28;;;11.90;99.90;;;;;;5061809;28;20040;-85
2022/05/06 07:14:18;;;;;;;8.05;4.55;;;11.90;99.90;;;;;;5042667;28;20048;-85
2022/05/06 07:16:50;;;;;;;4.00;3.40;;;12.00;99.90;;;;;;5061174;28;20318;-85
2022/05/06 07:19:15;;;;;;;4.75;3.65;;;12.00;99.90;;;;;;5060297;28;20483;-85
2022/05/06 07:21:41;;;;;;;3.00;2.47;;;12.10;99.90;;;;;;5061498;28;20044;-84
2022/05/06 07:24:07;;;;;;;5.68;3.90;;;12.10;99.90;;;;;;5043574;28;20402;-85
2022/05/06 07:26:33;;;;;;;2.80;2.60;;;12.20;99.90;;;;;;5043458;28;20037;-85
2022/05/06 07:28:58;;;;;;;5.47;2.83;;;12.20;99.90;;;;;;5061854;28;20533;-84
2022/05/06 07:31:24;;;;;;;3.10;2.60;;;12.30;99.90;;;;;;5043258;28;20044;-85
2022/05/06 07:33:49;;;;;;;3.17;2.58;;;12.30;99.90;;;;;;5042246;28;20048;-85
2022/05/06 07:36:15;;;;;;;3.25;2.92;;;12.30;99.90;;;;;;5042788;28;20064;-85
2022/05/06 07:38:43;;;;;;;4.13;3.05;;;12.30;99.90;;;;;;5061427;28;20048;-85
2022/05/06 07:41:09;;;;;;;2.55;2.35;;;12.40;99.90;;;;;;5060722;28;20043;-85
2022/05/06 07:43:34;;;;;;;3.50;2.90;;;12.50;99.90;;;;;;5061315;28;20037;-86
2022/05/06 07:46:00;;;;;;;2.63;2.42;;;12.50;99.90;;;;;;5066498;28;20316;-85
2022/05/06 07:48:26;;;;;;;2.40;2.20;;;12.50;99.90;;;;;;5062393;28;20044;-85
2022/05/06 07:50:51;;;;;;;2.13;1.95;;;12.50;99.90;;;;;;5062734;28;20067;-85
2022/05/06 07:53:17;;;;;;;3.05;2.75;;;12.60;99.90;;;;;;5080578;28;20371;-85
2022/05/06 07:55:43;;;;;;;3.45;2.67;;;12.60;99.90;;;;;;5080778;28;20046;-84
2022/05/06 07:58:09;;;;;;;2.78;2.40;;;12.60;99.90;;;;;;5062144;28;20265;-85
2022/05/06 08:00:35;;;;;;;2.38;2.17;;;12.70;99.90;;;;;;5046107;28;20044;-85
2022/05/06 08:05:47;;;;;;;4.38;2.63;;;12.80;99.90;;;;;;5080696;28;20040;-85
2022/05/06 08:08:14;;;;;;;2.88;2.63;;;12.80;99.90;;;;;;5058688;28;20049;-85
2022/05/06 08:10:40;;;;;;;4.05;3.28;;;12.80;99.90;;;;;;5058915;28;20057;-85
2022/05/06 08:13:06;;;;;;;5.03;3.03;;;12.90;99.90;;;;;;5058878;28;20063;-85
2022/05/06 08:15:32;;;;;;;2.53;2.33;;;12.90;99.90;;;;;;5059141;28;20131;-85
2022/05/06 08:17:58;;;;;;;2.72;2.47;;;13.00;99.90;;;;;;5041815;28;20044;-84
2022/05/06 08:20:23;;;;;;;7.32;2.92;;;13.10;99.90;;;;;;5060332;28;20044;-85
2022/05/06 08:22:49;;;;;;;6.15;2.67;;;13.00;99.90;;;;;;5059979;28;20110;-85
2022/05/06 08:25:15;;;;;;;4.00;2.50;;;13.10;99.90;;;;;;5059650;28;20499;-85
2022/05/06 08:27:43;;;;;;;3.13;2.83;;;13.10;99.90;;;;;;5059138;28;20055;-85
2022/05/06 08:30:12;;;;;;;3.97;2.42;;;13.20;99.90;;;;;;5058220;28;20502;-85
2022/05/06 08:32:38;;;;;;;3.25;2.45;;;13.20;99.90;;;;;;5059418;28;20049;-85
2022/05/06 08:35:04;;;;;;;3.28;2.30;;;13.20;99.90;;;;;;5058019;28;20047;-84
2022/05/06 08:37:40;;;;;;;4.43;2.55;;;13.20;99.90;;;;;;5060599;28;20319;-85
2022/05/06 08:40:06;;;;;;;4.00;2.20;;;13.30;99.90;;;;;;5059813;28;20072;-85
2022/05/06 08:42:31;;;;;;;4.70;2.60;;;13.40;99.90;;;;;;5060038;28;20237;-85
2022/05/06 08:53:11;;;;;;;4.20;3.05;;;13.60;99.90;;;;;;5039851;28;20107;-85
2022/05/06 08:55:37;;;;;;;8.98;2.47;;;13.60;99.90;;;;;;5040081;28;20612;-84
2022/05/06 08:58:05;;;;;;;3.40;2.35;;;13.70;99.90;;;;;;5037686;28;20033;-85
2022/05/06 09:00:30;;;;;;;3.10;2.15;;;13.70;99.90;;;;;;5038984;28;20495;-84
2022/05/06 09:02:56;;;;;;;4.75;2.05;;;13.70;99.90;;;;;;5038938;28;20049;-85
2022/05/06 09:05:21;;;;;;;2.17;1.85;;;13.70;99.90;;;;;;5037919;28;20044;-84
2022/05/06 09:08:13;;;;;;;2.15;2.00;;;13.80;99.90;;;;;;5038485;28;20980;-85
2022/05/06 09:10:39;;;;;;;2.95;2.25;;;13.90;99.90;;;;;;5037417;28;20099;-85
2022/05/06 09:13:04;;;;;;;1.83;1.40;;;13.90;99.90;;;;;;5039173;28;20072;-85
2022/05/06 09:18:22;;;;;;;2.47;1.80;;;14.00;99.90;;;;;;5037428;28;20056;-85
2022/05/06 09:20:49;;;;;;;1.83;1.70;;;14.10;99.90;;;;;;5039421;28;20099;-85
2022/05/06 09:23:20;;;;;;;4.90;2.03;;;14.10;99.90;;;;;;5039325;28;20125;-84
2022/05/06 09:25:49;;;;;;;3.88;2.15;;;14.20;99.90;;;;;;5038248;28;20045;-84
2022/05/06 09:28:27;;;;;;;7.88;1.27;;;14.20;99.90;;;;;;5020341;28;20056;-84
2022/05/06 09:31:02;;;;;;;2.05;1.88;;;14.30;99.90;;;;;;5039361;28;20339;-84
2022/05/06 09:33:30;;;;;;;3.15;2.00;;;14.40;99.90;;;;;;5038884;28;20041;-84
2022/05/06 09:35:56;;;;;;;4.57;2.88;;;14.50;99.90;;;;;;5038561;28;20045;-85
2022/05/06 09:38:24;;;;;;;9.52;2.50;;;14.50;99.90;;;;;;5037732;28;20696;-85
2022/05/06 09:40:50;;;;;;;4.95;2.22;;;14.60;99.90;;;;;;5038587;28;20045;-85
2022/05/06 09:43:17;;;;;;;2.53;2.13;;;14.60;99.90;;;;;;5039307;28;20056;-85
2022/05/06 09:45:44;;;;;;;3.58;2.50;;;14.80;99.90;;;;;;5042029;28;20093;-85
2022/05/06 09:48:11;;;;;;;2.53;2.17;;;14.80;99.90;;;;;;5056399;28;20076;-85
2022/05/06 09:50:45;;;;;;;6.63;2.85;;;14.90;99.90;;;;;;5040925;28;20098;-85
2022/05/06 09:53:13;;;;;;;3.30;2.45;;;14.90;99.90;;;;;;5058439;28;20240;-85
2022/05/06 09:55:44;;;;;;;5.63;2.25;;;15.00;99.90;;;;;;5057278;28;20045;-85
2022/05/06 09:58:11;;;;;;;3.42;2.17;;;15.00;99.90;;;;;;5058268;28;20287;-85
2022/05/06 10:00:39;;;;;;;2.47;2.28;;;15.10;99.90;;;;;;5057560;28;20040;-85
2022/05/06 10:03:05;;;;;;;3.33;2.70;;;15.20;99.90;;;;;;5056665;28;20758;-85
2022/05/06 10:05:34;;;;;;;4.20;2.35;;;15.20;99.90;;;;;;5058430;28;20033;-84
2022/05/06 10:08:15;;;;;;;4.60;3.35;;;15.20;99.90;;;;;;5071511;28;20078;-85
2022/05/06 10:10:47;;;;;;;6.28;2.97;;;15.20;99.90;;;;;;5078834;28;20123;-84
2022/05/06 10:13:22;;;;;;;2.83;2.53;;;15.10;99.90;;;;;;5079249;28;20165;-85
2022/05/06 10:15:50;;;;;;;4.57;2.63;;;15.20;99.90;;;;;;5060994;28;20123;-84
2022/05/06 10:18:34;;;;;;;4.53;2.58;;;15.20;99.90;;;;;;5042789;28;20040;-85
2022/05/06 10:21:01;;;;;;;4.55;3.72;;;15.20;99.90;;;;;;5061153;28;20044;-85
2022/05/06 10:23:53;;;;;;;4.15;3.13;;;15.30;99.90;;;;;;5079721;28;20099;-85
2022/05/06 10:26:40;;;;;;;6.00;3.67;;;15.40;99.90;;;;;;5060633;28;20111;-84
2022/05/06 10:34:55;;;;;;;2.85;1.67;;;15.40;99.90;;;;;;5079270;28;20052;-85
2022/05/06 10:37:21;;;;;;;5.13;2.70;;;15.50;99.90;;;;;;5078148;28;20412;-84
2022/05/06 10:39:46;;;;;;;2.45;2.25;;;15.60;99.90;;;;;;5060668;28;20111;-84
2022/05/06 10:42:17;;;;;;;2.25;2.05;;;15.60;99.90;;;;;;5078485;28;20553;-84
2022/05/06 10:44:43;;;;;;;2.33;1.73;;;15.60;99.90;;;;;;5061439;28;20085;-84
2022/05/06 10:47:11;;;;;;;3.92;3.08;;;15.60;99.90;;;;;;5043960;28;20107;-84
2022/05/06 10:49:40;;;;;;;2.72;2.47;;;15.60;99.90;;;;;;5060841;28;20119;-85
2022/05/06 10:52:18;;;;;;;2.42;2.17;;;15.70;99.90;;;;;;5061605;28;20056;-84
2022/05/06 10:54:47;;;;;;;1.42;1.33;;;15.70;99.90;;;;;;5061991;28;20044;-85
2022/05/06 10:57:14;;;;;;;2.35;1.92;;;15.80;99.90;;;;;;5043809;28;20482;-85
2022/05/06 10:59:50;;;;;;;1.58;1.48;;;15.80;99.90;;;;;;5043952;28;20071;-84
2022/05/06 11:02:17;;;;;;;3.22;2.55;;;15.90;99.90;;;;;;5060337;28;20056;-84
2022/05/06 11:04:50;;;;;;;2.03;1.45;;;16.00;99.90;;;;;;5043819;28;20047;-85
2022/05/06 11:07:17;;;;;;;2.17;1.73;;;16.10;99.90;;;;;;5043015;28;20059;-84
2022/05/06 11:09:43;;;;;;;2.88;2.00;;;16.00;99.90;;;;;;5043318;28;20083;-84
2022/05/06 11:12:09;;;;;;;2.45;1.98;;;16.10;99.90;;;;;;5061903;28;20037;-84
2022/05/06 11:14:35;;;;;;;1.02;0.90;;;16.20;99.90;;;;;;5060650;28;20458;-85
2022/05/06 11:17:17;;;;;;;2.50;1.88;;;16.20;99.90;;;;;;5061176;28;20036;-83
2022/05/06 11:19:42;;;;;;;2.50;1.55;;;16.30;99.90;;;;;;5061569;28;20090;-85
2022/05/06 11:22:08;;;;;;;4.85;2.63;;;16.30;99.90;;;;;;5060941;28;20041;-85
2022/05/06 11:24:34;;;;;;;2.50;2.30;;;16.40;99.90;;;;;;5044164;28;20052;-82
2022/05/06 11:27:19;;;;;;;3.40;2.42;;;16.40;99.90;;;;;;5061302;28;20036;-84
2022/05/06 11:29:57;;;;;;;2.20;2.08;;;16.50;99.90;;;;;;5043619;28;20036;-84
2022/05/06 11:32:27;;;;;;;3.40;2.53;;;16.50;99.90;;;;;;5059923;28;20373;-84
2022/05/06 11:35:06;;;;;;;5.35;2.58;;;16.60;99.90;;;;;;5043166;28;20332;-84
2022/05/06 11:37:34;;;;;;;6.22;2.97;;;16.50;99.90;;;;;;5060816;28;20055;-84
2022/05/06 11:40:18;;;;;;;3.08;2.30;;;16.60;99.90;;;;;;5061685;28;20041;-85
2022/05/06 11:42:44;;;;;;;4.90;3.35;;;16.60;99.90;;;;;;5043470;28;20380;-85
2022/05/06 11:48:10;;;;;;;4.38;2.60;;;16.80;99.90;;;;;;5040459;28;20113;-85
2022/05/06 11:50:37;;;;;;;6.97;3.17;;;16.80;99.90;;;;;;5041519;28;20045;-85
2022/05/06 11:53:07;;;;;;;3.50;2.95;;;16.90;99.90;;;;;;5022372;28;20033;-85
2022/05/06 11:55:35;;;;;;;4.07;3.67;;;16.80;99.90;;;;;;5022762;28;20049;-84
2022/05/06 11:58:02;;;;;;;3.78;2.92;;;16.90;99.90;;;;;;5040313;28;20252;-85
2022/05/06 12:00:29;;;;;;;7.32;3.35;;;17.00;99.90;;;;;;5023346;28;20049;-85
2022/05/06 12:02:54;;;;;;;6.03;3.85;;;17.10;99.90;;;;;;5039534;28;20052;-85
2022/05/06 12:05:20;;;;;;;3.90;2.63;;;17.10;99.90;;;;;;5040584;28;20045;-85
2022/05/06 12:07:47;;;;;;;8.43;3.33;;;17.20;99.90;;;;;;5022562;28;20133;-85
2022/05/06 12:10:29;;;;;;;9.85;3.08;;;17.20;99.90;;;;;;5040206;28;20105;-85
2022/05/06 12:12:59;;;;;;;4.43;3.42;;;17.20;99.90;;;;;;5022572;28;20495;-85
2022/05/06 12:15:39;;;;;;;6.05;2.70;;;17.20;99.90;;;;;;5021888;28;20212;-85
2022/05/06 12:18:24;;;;;;;4.85;4.07;;;17.20;99.90;;;;;;5020810;28;20519;-85
2022/05/06 12:20:50;;;;;;;6.63;3.50;;;17.20;99.90;;;;;;5040790;28;20037;-85
2022/05/06 12:23:27;;;;;;;7.55;3.88;;;17.20;99.90;;;;;;5039526;28;20425;-84
2022/05/06 12:25:56;;;;;;;5.47;3.22;;;17.20;99.90;;;;;;5040254;28;20033;-85
2022/05/06 12:28:23;;;;;;;12.13;4.18;;;17.20;99.90;;;;;;5040496;28;20051;-85
2022/05/06 12:30:59;;;;;;;5.18;3.20;;;17.30;99.90;;;;;;5039858;28;20317;-85
2022/05/06 12:33:36;;;;;;;7.70;3.90;;;17.30;99.90;;;;;;5038846;28;20103;-85
2022/05/06 12:36:04;;;;;;;6.03;4.03;;;17.40;99.90;;;;;;5022310;28;20322;-85
2022/05/06 12:38:38;;;;;;;5.88;4.10;;;17.40;99.90;;;;;;5022284;28;20040;-85
2022/05/06 12:41:23;;;;;;;4.22;3.17;;;17.50;99.90;;;;;;5039535;28;20345;-85
2022/05/06 12:43:50;;;;;;;5.65;4.00;;;17.50;99.90;;;;;;5022485;28;20487;-85
2022/05/06 12:46:27;;;;;;;4.05;3.40;;;17.60;99.90;;;;;;5036007;28;20032;-85
2022/05/06 12:51:42;;;;;;;5.13;3.35;;;17.70;99.90;;;;;;5047066;28;20056;-85
2022/05/06 12:54:12;;;;;;;6.85;3.75;;;17.70;99.90;;;;;;5079562;28;20044;-85
2022/05/06 12:56:41;;;;;;;3.50;3.20;;;17.60;99.90;;;;;;5061403;28;20080;-84
2022/05/06 12:59:07;;;;;;;5.28;4.22;;;17.60;99.90;;;;;;5060988;28;20071;-84
2022/05/06 13:01:34;;;;;;;3.58;3.17;;;17.60;99.90;;;;;;5079267;28;20036;-84
2022/05/06 13:04:00;;;;;;;2.47;2.22;;;17.60;99.90;;;;;;5080000;28;20328;-85
2022/05/06 13:06:26;;;;;;;10.10;3.30;;;17.60;99.90;;;;;;5045203;28;20036;-84
2022/05/06 13:08:52;;;;;;;7.18;3.88;;;17.60;99.90;;;;;;5041307;28;20048;-85
2022/05/06 13:11:18;;;;;;;5.10;3.53;;;17.60;99.90;;;;;;5058504;28;20178;-85
2022/05/06 13:13:43;;;;;;;5.38;3.22;;;17.70;99.90;;;;;;5058379;28;20483;-85
2022/05/06 13:16:11;;;;;;;8.32;4.10;;;17.70;99.90;;;;;;5058696;28;20040;-84
2022/05/06 13:18:37;;;;;;;6.38;3.28;;;17.80;99.90;;;;;;5058989;28;20044;-86
2022/05/06 13:21:04;;;;;;;4.13;3.33;;;17.80;99.90;;;;;;5059531;28;20475;-85
2022/05/06 13:23:29;;;;;;;6.85;3.97;;;17.80;99.90;;;;;;5059166;28;20498;-85
2022/05/06 13:25:56;;;;;;;4.65;3.03;;;17.90;99.90;;;;;;5059321;28;20045;-85
2022/05/06 13:28:22;;;;;;;3.90;3.22;;;17.90;99.90;;;;;;5058590;28;20040;-85